Time;durP1;ratioP1;P1;durP2;ratioP2;P2;SDS_P1;SDS_P2;PMS_P1;PMS_P2;Temp;Humidity;BMP_temperature;BMP_pressure;BME280_temperature;BME280_humidity;BME280_pressure;Samples;Min_cycle;Max_cycle;Signal;HPM_P1;HPM_P2
2023/03/09 00:02:04;;;;;;;7.97;7.10;;;0.50;99.90;;;;;;7372567;19;20356;-82
2023/03/09 00:04:30;;;;;;;8.45;7.07;;;0.50;99.90;;;;;;7375705;19;20321;-81
2023/03/09 00:06:55;;;;;;;7.83;7.03;;;0.50;99.90;;;;;;7376025;19;20347;-77
2023/03/09 00:09:21;;;;;;;8.75;6.75;;;0.50;99.90;;;;;;7377055;19;21207;-78
2023/03/09 00:11:47;;;;;;;8.10;6.20;;;0.50;99.90;;;;;;7373642;19;20344;-77
2023/03/09 00:14:13;;;;;;;9.52;7.30;;;0.60;99.90;;;;;;7376403;19;20308;-79
2023/03/09 00:16:38;;;;;;;8.13;6.88;;;0.60;99.90;;;;;;7374729;19;20344;-79
2023/03/09 00:19:04;;;;;;;8.60;7.50;;;0.60;99.90;;;;;;7377416;19;20367;-77
2023/03/09 00:21:48;;;;;;;9.07;7.83;;;0.50;99.90;;;;;;7372885;19;21063;-78
2023/03/09 00:24:16;;;;;;;9.70;7.82;;;0.50;99.90;;;;;;7384406;19;20435;-79
2023/03/09 00:26:43;;;;;;;9.73;7.90;;;0.50;99.90;;;;;;7383302;19;20345;-78
2023/03/09 00:29:10;;;;;;;9.07;7.90;;;0.50;99.90;;;;;;7383634;19;21389;-83
2023/03/09 00:31:36;;;;;;;11.05;8.70;;;0.50;99.90;;;;;;7381733;19;20881;-78
2023/03/09 00:34:03;;;;;;;10.77;7.77;;;0.50;99.90;;;;;;7379719;19;20352;-79
2023/03/09 00:36:29;;;;;;;12.13;8.63;;;0.50;99.90;;;;;;7379694;19;20325;-79
2023/03/09 00:38:56;;;;;;;10.77;8.30;;;0.50;99.90;;;;;;7382676;19;20355;-77
2023/03/09 00:41:23;;;;;;;11.77;9.15;;;0.50;99.90;;;;;;7382667;19;20309;-84
2023/03/09 00:43:48;;;;;;;10.70;9.18;;;0.50;99.90;;;;;;7386135;19;20304;-84
2023/03/09 00:46:14;;;;;;;11.63;8.17;;;0.50;99.90;;;;;;7385952;19;20400;-81
2023/03/09 00:48:40;;;;;;;10.20;8.38;;;0.50;99.90;;;;;;7385971;19;20322;-79
2023/03/09 00:51:06;;;;;;;11.15;9.15;;;0.50;99.90;;;;;;7385226;19;20323;-78
2023/03/09 00:53:32;;;;;;;10.98;8.90;;;0.50;99.90;;;;;;7384388;19;20940;-79
2023/03/09 00:56:02;;;;;;;11.60;9.10;;;0.50;99.90;;;;;;7385511;19;20308;-81
2023/03/09 00:58:28;;;;;;;10.88;8.23;;;0.50;99.90;;;;;;7385064;19;20316;-78
2023/03/09 01:00:53;;;;;;;12.13;9.10;;;0.50;99.90;;;;;;7381687;19;20774;-79
2023/03/09 01:03:19;;;;;;;9.27;8.27;;;0.50;99.90;;;;;;7378558;19;20335;-78
2023/03/09 01:05:45;;;;;;;13.13;9.73;;;0.50;99.90;;;;;;7382598;19;20377;-79
2023/03/09 01:08:11;;;;;;;11.07;8.73;;;0.50;99.90;;;;;;7380814;19;20943;-79
2023/03/09 01:10:40;;;;;;;10.57;8.83;;;0.50;99.90;;;;;;7380450;19;20313;-79
2023/03/09 01:13:05;;;;;;;9.98;8.93;;;0.50;99.90;;;;;;7378378;19;20444;-82
2023/03/09 01:15:31;;;;;;;11.02;9.32;;;0.50;99.90;;;;;;7381936;19;20429;-81
2023/03/09 01:17:57;;;;;;;10.97;8.77;;;0.50;99.90;;;;;;7382005;19;20329;-79
2023/03/09 01:20:22;;;;;;;10.32;8.38;;;0.50;99.90;;;;;;7381990;19;20308;-78
2023/03/09 01:22:49;;;;;;;9.82;8.65;;;0.50;99.90;;;;;;7376320;19;20352;-79
2023/03/09 01:25:15;;;;;;;11.90;9.20;;;0.40;99.90;;;;;;7369039;19;20927;-78
2023/03/09 01:27:46;;;;;;;10.90;8.80;;;0.50;99.90;;;;;;7381049;19;20386;-78
2023/03/09 01:30:12;;;;;;;9.88;8.30;;;0.50;99.90;;;;;;7380560;19;20748;-80
2023/03/09 01:32:39;;;;;;;11.45;9.50;;;0.50;99.90;;;;;;7382092;19;20317;-81
2023/03/09 01:35:05;;;;;;;10.77;8.43;;;0.40;99.90;;;;;;7379534;19;20388;-81
2023/03/09 01:37:31;;;;;;;11.07;9.27;;;0.50;99.90;;;;;;7382000;19;20402;-80
2023/03/09 01:39:57;;;;;;;11.50;9.10;;;0.50;99.90;;;;;;7383579;19;20313;-78
2023/03/09 01:42:23;;;;;;;10.98;9.00;;;0.50;99.90;;;;;;7381961;19;20855;-81
2023/03/09 01:45:09;;;;;;;10.83;9.03;;;0.50;99.90;;;;;;7382445;19;20331;-84
2023/03/09 01:47:35;;;;;;;11.13;9.00;;;0.50;99.90;;;;;;7279728;19;2004596;-78
2023/03/09 01:50:02;;;;;;;12.03;9.53;;;0.50;99.90;;;;;;7381026;19;20666;-82
2023/03/09 01:52:30;;;;;;;11.07;9.23;;;0.50;99.90;;;;;;7379709;19;20930;-80
2023/03/09 01:55:06;;;;;;;11.07;9.40;;;0.50;99.90;;;;;;7382336;19;20352;-80
2023/03/09 01:57:36;;;;;;;11.68;8.90;;;0.40;99.90;;;;;;7379112;19;20344;-79
2023/03/09 02:00:07;;;;;;;9.98;8.13;;;0.50;99.90;;;;;;7382830;19;20309;-79
2023/03/09 02:02:56;;;;;;;10.47;8.47;;;0.50;99.90;;;;;;7176795;19;2004501;-84
2023/03/09 02:05:26;;;;;;;10.43;8.45;;;0.50;99.90;;;;;;7278031;19;2004419;-81
2023/03/09 02:07:51;;;;;;;9.90;8.40;;;0.50;99.90;;;;;;7382367;19;20374;-80
2023/03/09 02:10:33;;;;;;;10.60;8.77;;;0.50;99.90;;;;;;7381846;19;20420;-82
2023/03/09 02:13:04;;;;;;;10.05;9.00;;;0.40;99.90;;;;;;7278563;19;2004996;-78
2023/03/09 02:15:35;;;;;;;11.57;8.73;;;0.50;99.90;;;;;;7381004;19;20911;-79
2023/03/09 02:18:01;;;;;;;10.55;9.18;;;0.50;99.90;;;;;;7381691;19;20313;-85
2023/03/09 02:20:45;;;;;;;11.67;9.30;;;0.60;99.90;;;;;;7381489;19;20673;-79
2023/03/09 02:23:18;;;;;;;11.23;9.47;;;0.50;99.90;;;;;;7378283;19;20320;-81
2023/03/09 02:25:56;;;;;;;11.98;9.10;;;0.50;99.90;;;;;;7378460;19;20328;-79
2023/03/09 02:28:21;;;;;;;11.40;9.60;;;0.40;99.90;;;;;;7277268;19;2004395;-77
2023/03/09 02:30:47;;;;;;;11.80;9.63;;;0.40;99.90;;;;;;7381268;19;20309;-79
2023/03/09 02:33:25;;;;;;;11.63;9.85;;;0.40;99.90;;;;;;7380314;19;20476;-80
2023/03/09 02:35:55;;;;;;;12.02;9.35;;;0.40;99.90;;;;;;7277120;19;2004404;-83
2023/03/09 02:38:21;;;;;;;12.60;10.00;;;0.40;99.90;;;;;;7379091;19;20301;-78
2023/03/09 02:40:47;;;;;;;11.45;9.73;;;0.60;99.90;;;;;;7381329;19;20312;-79
2023/03/09 02:43:18;;;;;;;11.02;9.57;;;0.40;99.90;;;;;;7376662;19;20375;-78
2023/03/09 02:45:44;;;;;;;11.90;9.45;;;0.40;99.90;;;;;;7375552;19;20344;-81
2023/03/09 02:48:10;;;;;;;11.45;9.35;;;0.40;99.90;;;;;;7378473;19;21241;-79
2023/03/09 02:50:35;;;;;;;11.60;9.40;;;0.40;99.90;;;;;;7378251;19;20403;-82
2023/03/09 02:53:02;;;;;;;10.93;9.60;;;0.40;99.90;;;;;;7375134;19;20879;-78
2023/03/09 02:55:30;;;;;;;12.15;8.73;;;0.50;99.90;;;;;;7377555;19;20309;-77
2023/03/09 02:57:56;;;;;;;11.48;8.75;;;0.50;99.90;;;;;;7378187;19;20365;-78
2023/03/09 03:00:22;;;;;;;9.98;8.40;;;0.50;99.90;;;;;;7376632;19;20321;-80
2023/03/09 03:02:47;;;;;;;11.87;9.20;;;0.50;99.90;;;;;;7377471;19;20345;-78
2023/03/09 03:05:13;;;;;;;11.95;9.48;;;0.50;99.90;;;;;;7376893;19;20385;-80
2023/03/09 03:07:40;;;;;;;11.45;9.07;;;0.40;99.90;;;;;;7378653;19;20334;-80
2023/03/09 03:10:06;;;;;;;11.77;9.35;;;0.40;99.90;;;;;;7376419;19;20707;-80
2023/03/09 03:12:32;;;;;;;10.50;9.40;;;0.40;99.90;;;;;;7373967;19;20325;-78
2023/03/09 03:14:59;;;;;;;11.52;9.40;;;0.40;99.90;;;;;;7377793;19;20365;-80
2023/03/09 03:17:26;;;;;;;11.20;8.73;;;0.40;99.90;;;;;;7377489;19;20335;-79
2023/03/09 03:19:53;;;;;;;11.60;8.82;;;0.40;99.90;;;;;;7377743;19;20349;-78
2023/03/09 03:22:19;;;;;;;11.80;9.43;;;0.40;99.90;;;;;;7374095;19;20875;-80
2023/03/09 03:24:45;;;;;;;10.53;9.03;;;0.40;99.90;;;;;;7373021;19;20744;-79
2023/03/09 03:27:10;;;;;;;11.63;9.73;;;0.40;99.90;;;;;;7375859;19;20317;-78
2023/03/09 03:29:36;;;;;;;11.73;9.32;;;0.40;99.90;;;;;;7375752;19;20862;-80
2023/03/09 03:32:02;;;;;;;12.35;9.75;;;0.30;99.90;;;;;;7373150;19;20352;-79
2023/03/09 03:34:28;;;;;;;11.80;9.23;;;0.30;99.90;;;;;;7376926;19;20324;-79
2023/03/09 03:36:54;;;;;;;12.38;9.90;;;0.30;99.90;;;;;;7376334;19;20364;-78
2023/03/09 03:39:21;;;;;;;12.57;9.43;;;0.40;99.90;;;;;;7377703;19;20332;-76
2023/03/09 03:41:50;;;;;;;11.37;9.67;;;0.40;99.90;;;;;;7372834;19;20681;-79
2023/03/09 03:44:17;;;;;;;10.60;8.60;;;0.40;99.90;;;;;;7378411;19;20392;-78
2023/03/09 03:46:43;;;;;;;10.30;8.93;;;0.40;99.90;;;;;;7376916;19;20455;-79
2023/03/09 03:49:09;;;;;;;10.50;9.35;;;0.40;99.90;;;;;;7377130;19;20340;-78
2023/03/09 03:51:37;;;;;;;12.38;9.70;;;0.40;99.90;;;;;;7374600;19;21002;-79
2023/03/09 03:54:03;;;;;;;12.35;9.52;;;0.40;99.90;;;;;;7377033;19;20349;-85
2023/03/09 03:56:28;;;;;;;13.35;9.60;;;0.40;99.90;;;;;;7377988;19;20341;-80
2023/03/09 03:58:56;;;;;;;11.43;9.43;;;0.40;99.90;;;;;;7385065;19;20340;-76
2023/03/09 04:01:22;;;;;;;10.60;9.20;;;0.40;99.90;;;;;;7383744;19;20312;-83
2023/03/09 04:03:52;;;;;;;10.93;9.05;;;0.40;99.90;;;;;;7382074;19;20352;-79
2023/03/09 04:06:19;;;;;;;11.53;9.03;;;0.40;99.90;;;;;;7384022;19;20380;-78
2023/03/09 04:08:46;;;;;;;11.40;9.70;;;0.30;99.90;;;;;;7385002;19;20344;-80
2023/03/09 04:11:12;;;;;;;11.48;9.20;;;0.40;99.90;;;;;;7382734;19;20308;-80
2023/03/09 04:13:42;;;;;;;13.93;10.35;;;0.40;99.90;;;;;;7380096;19;20324;-80
2023/03/09 04:16:08;;;;;;;11.43;9.65;;;0.30;99.90;;;;;;7380333;19;20340;-78
2023/03/09 04:18:34;;;;;;;11.27;9.45;;;0.30;99.90;;;;;;7385178;19;20348;-81
2023/03/09 04:21:00;;;;;;;13.82;9.45;;;0.30;99.90;;;;;;7386734;19;20312;-82
2023/03/09 04:23:26;;;;;;;13.85;9.80;;;0.40;99.90;;;;;;7383329;19;20308;-80
2023/03/09 04:25:56;;;;;;;11.13;9.50;;;0.30;99.90;;;;;;7383744;19;20459;-85
2023/03/09 04:28:23;;;;;;;14.18;9.55;;;0.30;99.90;;;;;;7384534;19;20902;-84
2023/03/09 04:30:52;;;;;;;11.90;9.27;;;0.40;99.90;;;;;;7383292;19;20334;-81
2023/03/09 04:33:17;;;;;;;10.85;9.23;;;0.30;99.90;;;;;;7383850;19;20325;-81
2023/03/09 04:35:43;;;;;;;13.90;10.05;;;0.40;99.90;;;;;;7383173;19;20317;-78
2023/03/09 04:38:16;;;;;;;12.40;9.82;;;0.40;99.90;;;;;;7384125;19;20312;-79
2023/03/09 04:40:43;;;;;;;12.65;9.80;;;0.40;99.90;;;;;;7383020;19;20312;-79
2023/03/09 04:43:08;;;;;;;12.45;9.98;;;0.40;99.90;;;;;;7382669;19;20301;-82
2023/03/09 04:45:34;;;;;;;13.10;10.15;;;0.40;99.90;;;;;;7384105;19;20316;-83
2023/03/09 04:48:01;;;;;;;12.60;10.07;;;0.40;99.90;;;;;;7382812;19;20324;-79
2023/03/09 04:50:27;;;;;;;12.60;10.40;;;0.30;99.90;;;;;;7383708;19;20312;-82
2023/03/09 04:52:57;;;;;;;13.30;10.60;;;0.30;99.90;;;;;;7383441;19;20341;-80
2023/03/09 04:55:23;;;;;;;12.23;9.93;;;0.30;99.90;;;;;;7384657;19;20311;-79
2023/03/09 04:57:49;;;;;;;12.35;10.27;;;0.30;99.90;;;;;;7383166;19;20313;-82
2023/03/09 05:00:18;;;;;;;12.57;9.77;;;0.40;99.90;;;;;;7382214;19;20301;-80
2023/03/09 05:02:44;;;;;;;14.65;10.75;;;0.40;99.90;;;;;;7380984;19;20342;-78
2023/03/09 05:05:10;;;;;;;13.25;10.10;;;0.40;99.90;;;;;;7384110;19;20329;-81
2023/03/09 05:07:36;;;;;;;13.07;10.30;;;0.40;99.90;;;;;;7382844;19;20688;-79
2023/03/09 05:10:05;;;;;;;14.55;10.57;;;0.40;99.90;;;;;;7380069;19;20781;-81
2023/03/09 05:12:33;;;;;;;13.40;10.47;;;0.40;99.90;;;;;;7382892;19;20348;-82
2023/03/09 05:15:01;;;;;;;12.45;10.32;;;0.40;99.90;;;;;;7384734;19;20391;-80
2023/03/09 05:17:27;;;;;;;14.02;10.88;;;0.40;99.90;;;;;;7382884;19;20330;-81
2023/03/09 05:19:52;;;;;;;14.15;11.13;;;0.30;99.90;;;;;;7382201;19;20384;-80
2023/03/09 05:22:19;;;;;;;13.27;10.10;;;0.40;99.90;;;;;;7382856;19;20377;-79
2023/03/09 05:24:45;;;;;;;13.77;10.93;;;0.40;99.90;;;;;;7381979;19;20376;-80
2023/03/09 05:27:12;;;;;;;12.65;10.45;;;0.40;99.90;;;;;;7382608;19;20739;-79
2023/03/09 05:29:38;;;;;;;15.40;10.82;;;0.30;99.90;;;;;;7382570;19;20840;-80
2023/03/09 05:32:05;;;;;;;13.35;11.15;;;0.40;99.90;;;;;;7379129;19;20337;-80
2023/03/09 05:34:33;;;;;;;13.65;10.45;;;0.40;99.90;;;;;;7382582;19;20321;-82
2023/03/09 05:36:59;;;;;;;13.48;10.82;;;0.40;99.90;;;;;;7381200;19;20320;-77
2023/03/09 05:39:26;;;;;;;12.37;10.03;;;0.40;99.90;;;;;;7382040;19;20308;-79
2023/03/09 05:41:52;;;;;;;14.53;11.03;;;0.40;99.90;;;;;;7380686;19;20312;-80
2023/03/09 05:44:23;;;;;;;15.03;10.80;;;0.40;99.90;;;;;;7380052;19;20301;-77
2023/03/09 05:46:49;;;;;;;13.10;10.13;;;0.50;99.90;;;;;;7383872;19;20309;-76
2023/03/09 05:49:27;;;;;;;14.03;10.13;;;0.40;99.90;;;;;;7384167;19;20855;-82
2023/03/09 05:52:01;;;;;;;11.23;9.40;;;0.40;99.90;;;;;;7282119;19;2004431;-75
2023/03/09 05:54:30;;;;;;;13.38;10.48;;;0.40;99.90;;;;;;7384835;19;20315;-79
2023/03/09 05:56:59;;;;;;;13.83;10.50;;;0.40;99.90;;;;;;7382342;19;20344;-77
2023/03/09 05:59:24;;;;;;;14.27;9.70;;;0.40;99.90;;;;;;7380120;19;20320;-80
2023/03/09 06:01:51;;;;;;;12.65;10.07;;;0.40;99.90;;;;;;7375606;19;20340;-79
2023/03/09 06:04:21;;;;;;;13.30;10.18;;;0.40;99.90;;;;;;7379554;19;20301;-79
2023/03/09 06:06:51;;;;;;;12.82;10.38;;;0.40;99.90;;;;;;7380575;19;20352;-79
2023/03/09 06:09:20;;;;;;;12.77;9.82;;;0.40;99.90;;;;;;7380786;19;20310;-78
2023/03/09 06:11:46;;;;;;;11.27;9.20;;;0.40;99.90;;;;;;7375633;19;20360;-79
2023/03/09 06:14:12;;;;;;;10.80;9.13;;;0.40;99.90;;;;;;7379927;19;20309;-79
2023/03/09 06:16:40;;;;;;;13.30;9.38;;;0.40;99.90;;;;;;7380217;19;20340;-79
2023/03/09 06:19:07;;;;;;;12.60;9.25;;;0.50;99.90;;;;;;7379396;19;20347;-78
2023/03/09 06:21:34;;;;;;;12.05;9.27;;;0.50;99.90;;;;;;7382279;19;20885;-77
2023/03/09 06:24:01;;;;;;;12.45;9.15;;;0.50;99.90;;;;;;7377112;19;20340;-80
2023/03/09 06:26:27;;;;;;;13.07;9.57;;;0.50;99.90;;;;;;7379909;19;20323;-85
2023/03/09 06:28:58;;;;;;;11.20;9.25;;;0.50;99.90;;;;;;7382671;19;20864;-80
2023/03/09 06:31:24;;;;;;;11.63;9.15;;;0.50;99.90;;;;;;7382650;19;20322;-79
2023/03/09 06:33:52;;;;;;;11.00;9.32;;;0.50;99.90;;;;;;7381317;19;20329;-81
2023/03/09 06:36:19;;;;;;;12.50;9.77;;;0.50;99.90;;;;;;7380583;19;20308;-78
2023/03/09 06:38:48;;;;;;;12.70;9.20;;;0.60;99.90;;;;;;7379267;19;20999;-79
2023/03/09 06:41:15;;;;;;;12.17;9.80;;;0.50;99.90;;;;;;7379847;19;20304;-80
2023/03/09 06:43:45;;;;;;;10.48;8.98;;;0.60;99.90;;;;;;7379995;19;20394;-81
2023/03/09 06:46:10;;;;;;;9.85;8.48;;;0.50;99.90;;;;;;7378703;19;20340;-82
2023/03/09 06:48:36;;;;;;;11.20;8.70;;;0.50;99.90;;;;;;7378874;19;20858;-79
2023/03/09 06:51:02;;;;;;;12.82;9.20;;;0.60;99.90;;;;;;7379384;19;20851;-79
2023/03/09 06:53:28;;;;;;;10.10;8.95;;;0.60;99.90;;;;;;7376289;19;20312;-79
2023/03/09 06:56:00;;;;;;;11.32;9.05;;;0.60;99.90;;;;;;7376776;19;20371;-78
2023/03/09 06:58:26;;;;;;;9.93;8.43;;;0.60;99.90;;;;;;7379231;19;20308;-81
2023/03/09 07:00:52;;;;;;;10.10;8.27;;;0.60;99.90;;;;;;7375750;19;20325;-79
2023/03/09 07:03:18;;;;;;;12.10;8.80;;;0.60;99.90;;;;;;7374640;19;20320;-78
2023/03/09 07:05:44;;;;;;;10.65;8.30;;;0.60;99.90;;;;;;7377369;19;20312;-79
2023/03/09 07:08:09;;;;;;;11.77;8.48;;;0.60;99.90;;;;;;7376696;19;20899;-77
2023/03/09 07:10:35;;;;;;;10.83;8.00;;;0.60;99.90;;;;;;7376110;19;20455;-81
2023/03/09 07:13:00;;;;;;;10.03;8.07;;;0.60;99.90;;;;;;7373152;19;20316;-79
2023/03/09 07:15:26;;;;;;;10.57;8.17;;;0.60;99.90;;;;;;7377055;19;20365;-80
2023/03/09 07:17:51;;;;;;;11.77;8.87;;;0.60;99.90;;;;;;7377313;19;20650;-79
2023/03/09 07:20:18;;;;;;;10.53;8.37;;;0.60;99.90;;;;;;7376712;19;20333;-78
2023/03/09 07:22:44;;;;;;;9.00;7.80;;;0.60;99.90;;;;;;7373603;19;20321;-80
2023/03/09 07:25:09;;;;;;;9.97;7.90;;;0.70;99.90;;;;;;7376082;19;20372;-80
2023/03/09 07:27:35;;;;;;;11.27;8.38;;;0.70;99.90;;;;;;7375929;19;20321;-81
2023/03/09 07:30:00;;;;;;;10.17;8.03;;;0.70;99.90;;;;;;7377142;19;20321;-79
2023/03/09 07:32:26;;;;;;;10.35;7.90;;;0.80;99.90;;;;;;7380028;19;20324;-79
2023/03/09 07:34:52;;;;;;;10.87;8.43;;;0.80;99.90;;;;;;7391013;19;20352;-78
2023/03/09 07:37:17;;;;;;;10.93;9.00;;;0.80;99.90;;;;;;7391587;19;20323;-86
2023/03/09 07:39:43;;;;;;;10.53;8.53;;;0.80;99.90;;;;;;7391019;19;20401;-83
2023/03/09 07:42:09;;;;;;;9.17;7.87;;;0.80;99.90;;;;;;7385022;19;20333;-80
2023/03/09 07:44:57;;;;;;;8.65;7.72;;;0.80;99.90;;;;;;7294253;19;2004598;-84
2023/03/09 07:47:22;;;;;;;9.73;8.25;;;0.90;99.90;;;;;;7394966;19;20787;-79
2023/03/09 07:49:49;;;;;;;9.13;8.13;;;0.90;99.90;;;;;;7388945;19;20344;-83
2023/03/09 07:52:14;;;;;;;10.38;8.35;;;1.00;99.90;;;;;;7386739;19;20391;-79
2023/03/09 07:54:40;;;;;;;9.17;7.63;;;1.00;99.90;;;;;;7399062;19;20420;-81
2023/03/09 07:57:06;;;;;;;10.38;8.23;;;1.10;99.90;;;;;;7399825;19;20321;-85
2023/03/09 07:59:31;;;;;;;10.80;8.47;;;1.20;99.90;;;;;;7400213;19;20346;-89
2023/03/09 08:01:57;;;;;;;11.30;8.68;;;1.20;99.90;;;;;;7392867;19;20349;-90
2023/03/09 08:04:22;;;;;;;11.60;8.90;;;1.20;99.90;;;;;;7394347;19;20331;-87
2023/03/09 08:06:49;;;;;;;11.35;8.82;;;1.20;99.90;;;;;;7386544;19;20324;-81
2023/03/09 08:09:14;;;;;;;10.90;8.80;;;1.20;99.90;;;;;;7387294;19;20399;-85
2023/03/09 08:11:42;;;;;;;11.03;8.90;;;1.20;99.90;;;;;;7386053;19;21297;-79
2023/03/09 08:14:09;;;;;;;11.73;8.90;;;1.20;99.90;;;;;;7384999;19;20320;-79
2023/03/09 08:16:35;;;;;;;9.93;8.38;;;1.20;99.90;;;;;;7386074;19;20328;-78
2023/03/09 08:19:00;;;;;;;10.93;8.03;;;1.20;99.90;;;;;;7387319;19;20343;-76
2023/03/09 08:21:26;;;;;;;8.95;7.57;;;1.20;99.90;;;;;;7387416;19;20366;-78
2023/03/09 08:23:52;;;;;;;10.07;7.93;;;1.20;99.90;;;;;;7382323;19;20842;-80
2023/03/09 08:26:18;;;;;;;10.33;8.43;;;1.20;99.90;;;;;;7384951;19;20304;-79
2023/03/09 08:28:45;;;;;;;10.85;8.70;;;1.20;99.90;;;;;;7387569;19;20393;-82
2023/03/09 08:31:11;;;;;;;9.80;8.50;;;1.10;99.90;;;;;;7386514;19;21238;-79
2023/03/09 08:33:37;;;;;;;13.03;8.87;;;1.10;99.90;;;;;;7381751;19;20905;-78
2023/03/09 08:36:15;;;;;;;10.73;8.63;;;1.10;99.90;;;;;;7385430;19;20333;-79
2023/03/09 08:38:42;;;;;;;11.37;8.93;;;1.10;99.90;;;;;;7386670;19;20356;-77
2023/03/09 08:41:07;;;;;;;12.07;9.15;;;1.10;99.90;;;;;;7388513;19;20863;-80
2023/03/09 08:43:33;;;;;;;10.47;9.30;;;1.20;99.90;;;;;;7378517;19;20352;-79
2023/03/09 08:45:58;;;;;;;11.18;9.10;;;1.10;99.90;;;;;;7379476;19;20325;-79
2023/03/09 08:48:24;;;;;;;10.77;9.20;;;1.10;99.90;;;;;;7379029;19;20855;-81
2023/03/09 08:50:50;;;;;;;10.23;8.93;;;1.10;99.90;;;;;;7378835;19;20332;-78
2023/03/09 08:53:18;;;;;;;11.60;9.43;;;1.10;99.90;;;;;;7378300;19;20338;-80
2023/03/09 08:55:43;;;;;;;10.85;9.05;;;1.10;99.90;;;;;;7376474;19;20304;-78
2023/03/09 08:58:09;;;;;;;10.68;8.98;;;1.10;99.90;;;;;;7378674;19;20927;-84
2023/03/09 09:00:35;;;;;;;10.07;7.97;;;1.20;99.90;;;;;;7377392;19;20331;-79
2023/03/09 09:03:01;;;;;;;10.38;8.63;;;1.20;99.90;;;;;;7374333;19;20331;-79
2023/03/09 09:05:26;;;;;;;9.40;8.40;;;1.30;99.90;;;;;;7377658;19;20332;-81
2023/03/09 09:07:52;;;;;;;10.30;8.57;;;1.30;99.90;;;;;;7377259;19;20332;-79
2023/03/09 09:10:18;;;;;;;9.60;8.55;;;1.30;99.90;;;;;;7379076;19;20327;-85
2023/03/09 09:12:46;;;;;;;10.05;8.00;;;1.30;99.90;;;;;;7372640;19;20318;-77
2023/03/09 09:15:13;;;;;;;9.20;8.03;;;1.40;99.90;;;;;;7374719;19;20341;-83
2023/03/09 09:17:40;;;;;;;10.85;8.32;;;1.50;99.90;;;;;;7378567;19;21113;-78
2023/03/09 09:20:07;;;;;;;10.93;9.00;;;1.50;99.90;;;;;;7377701;19;20366;-84
2023/03/09 09:22:32;;;;;;;10.95;8.90;;;1.40;99.90;;;;;;7374500;19;20336;-81
2023/03/09 09:24:59;;;;;;;10.73;8.30;;;1.40;99.90;;;;;;7376343;19;20811;-81
2023/03/09 09:27:24;;;;;;;9.63;7.40;;;1.50;99.90;;;;;;7377994;19;20320;-82
2023/03/09 09:29:52;;;;;;;9.20;7.93;;;1.50;99.90;;;;;;7379731;19;20980;-82
2023/03/09 09:32:18;;;;;;;12.07;8.90;;;1.50;99.90;;;;;;7373122;19;20416;-78
2023/03/09 09:34:43;;;;;;;12.52;9.70;;;1.50;99.90;;;;;;7376573;19;21159;-80
2023/03/09 09:37:11;;;;;;;9.45;8.45;;;1.50;99.90;;;;;;7377598;19;20344;-79
2023/03/09 09:39:37;;;;;;;10.05;8.18;;;1.60;99.90;;;;;;7377685;19;20970;-78
2023/03/09 09:42:05;;;;;;;9.13;8.17;;;1.60;99.90;;;;;;7374762;19;20701;-79
2023/03/09 09:44:39;;;;;;;9.93;8.68;;;1.60;99.90;;;;;;7376473;19;20899;-81
2023/03/09 09:47:06;;;;;;;9.85;8.50;;;1.70;99.90;;;;;;7376998;19;21182;-77
2023/03/09 09:49:41;;;;;;;10.40;8.77;;;1.80;99.90;;;;;;7376576;19;20700;-79
2023/03/09 09:52:13;;;;;;;9.98;8.70;;;1.80;99.90;;;;;;7374158;19;20373;-80
2023/03/09 09:55:11;;;;;;;10.07;8.82;;;1.80;99.90;;;;;;7375101;19;20534;-77
2023/03/09 09:57:38;;;;;;;10.32;8.77;;;1.70;99.90;;;;;;7272806;19;2004497;-79
2023/03/09 10:00:14;;;;;;;11.35;8.90;;;1.70;99.90;;;;;;7377088;19;20313;-78
2023/03/09 10:02:39;;;;;;;10.32;8.43;;;1.70;99.90;;;;;;7370455;19;20329;-80
2023/03/09 10:05:12;;;;;;;10.70;8.60;;;1.70;99.90;;;;;;7374587;19;20316;-80
2023/03/09 10:07:38;;;;;;;9.68;8.68;;;1.80;99.90;;;;;;7377125;19;20312;-79
2023/03/09 10:10:06;;;;;;;11.32;9.02;;;1.90;99.90;;;;;;7375019;19;20320;-79
2023/03/09 10:12:32;;;;;;;11.50;8.88;;;1.90;99.90;;;;;;7371610;19;20348;-79
2023/03/09 10:15:04;;;;;;;9.27;8.03;;;1.90;99.90;;;;;;7374996;19;20968;-78
2023/03/09 10:17:33;;;;;;;9.10;8.18;;;1.90;99.90;;;;;;7374623;19;20313;-77
2023/03/09 10:20:02;;;;;;;9.65;8.02;;;1.90;99.90;;;;;;7375842;19;20332;-78
2023/03/09 10:22:30;;;;;;;9.27;8.15;;;1.90;99.90;;;;;;7372638;19;20344;-79
2023/03/09 10:24:56;;;;;;;9.88;8.52;;;2.00;99.90;;;;;;7373711;19;20978;-83
2023/03/09 10:27:27;;;;;;;11.18;8.80;;;2.00;99.90;;;;;;7376938;19;20329;-79
2023/03/09 10:30:15;;;;;;;11.70;9.02;;;2.10;99.90;;;;;;7274500;19;2004399;-81
2023/03/09 10:32:48;;;;;;;9.23;8.05;;;2.10;99.90;;;;;;7372550;19;20351;-78
2023/03/09 10:35:34;;;;;;;12.23;9.50;;;2.10;99.90;;;;;;7376226;19;20340;-78
2023/03/09 10:37:59;;;;;;;9.45;7.88;;;2.00;99.90;;;;;;7274585;19;2004411;-77
2023/03/09 10:40:29;;;;;;;9.38;8.40;;;2.00;99.90;;;;;;7376917;19;20352;-79
2023/03/09 10:42:57;;;;;;;10.38;8.60;;;2.10;99.90;;;;;;7370232;19;20420;-80
2023/03/09 10:45:28;;;;;;;9.20;8.20;;;2.20;99.90;;;;;;7375205;19;20352;-78
2023/03/09 10:48:02;;;;;;;10.32;8.75;;;2.20;99.90;;;;;;7376712;19;20320;-79
2023/03/09 10:50:32;;;;;;;9.35;8.32;;;2.20;99.90;;;;;;7375506;19;20324;-77
2023/03/09 10:53:24;;;;;;;11.10;9.30;;;2.20;99.90;;;;;;7372445;19;20352;-77
2023/03/09 10:55:54;;;;;;;10.85;8.60;;;2.20;99.90;;;;;;7372580;19;20344;-79
2023/03/09 10:58:21;;;;;;;9.52;8.05;;;2.20;99.90;;;;;;7374557;19;20946;-78
2023/03/09 11:00:56;;;;;;;10.13;8.35;;;2.30;99.90;;;;;;7374905;19;20324;-83
2023/03/09 11:03:49;;;;;;;10.18;8.05;;;2.30;99.90;;;;;;7369769;19;20991;-79
2023/03/09 11:06:21;;;;;;;11.13;9.13;;;2.30;99.90;;;;;;7270244;19;2005967;-77
2023/03/09 11:08:54;;;;;;;10.45;8.32;;;2.30;99.90;;;;;;7376177;19;20308;-81
2023/03/09 11:11:24;;;;;;;10.93;9.68;;;2.40;99.90;;;;;;7372875;19;20415;-80
2023/03/09 11:13:50;;;;;;;11.48;9.35;;;2.30;99.90;;;;;;7372048;19;20344;-83
2023/03/09 11:16:22;;;;;;;10.55;8.80;;;2.30;99.90;;;;;;7376914;19;20325;-77
2023/03/09 11:18:48;;;;;;;12.13;10.38;;;2.30;99.90;;;;;;7376208;19;20353;-75
2023/03/09 11:21:23;;;;;;;12.65;10.15;;;2.40;99.90;;;;;;7375893;19;20336;-77
2023/03/09 11:23:51;;;;;;;11.57;9.35;;;2.30;99.90;;;;;;7371589;19;20315;-82
2023/03/09 11:26:25;;;;;;;11.80;10.02;;;2.30;99.90;;;;;;7376711;19;20328;-78
2023/03/09 11:28:57;;;;;;;11.53;9.40;;;2.20;99.90;;;;;;7376525;19;20340;-78
2023/03/09 11:31:24;;;;;;;10.98;9.10;;;2.20;99.90;;;;;;7372292;19;20313;-77
2023/03/09 11:33:52;;;;;;;11.20;9.48;;;2.30;99.90;;;;;;7374106;19;20853;-84
2023/03/09 11:36:20;;;;;;;12.02;9.82;;;2.30;99.90;;;;;;7379688;19;21281;-79
2023/03/09 11:38:46;;;;;;;10.13;8.32;;;2.30;99.90;;;;;;7379409;19;20359;-84
2023/03/09 11:41:23;;;;;;;9.23;8.00;;;2.40;99.90;;;;;;7378642;19;20328;-82
2023/03/09 11:43:51;;;;;;;10.43;9.20;;;2.50;99.90;;;;;;7373960;19;20321;-80
2023/03/09 11:46:17;;;;;;;11.97;9.97;;;2.40;99.90;;;;;;7377451;19;20327;-87
2023/03/09 11:48:53;;;;;;;10.95;9.85;;;2.50;99.90;;;;;;7380992;19;20932;-87
2023/03/09 11:51:34;;;;;;;12.10;10.45;;;2.50;99.90;;;;;;7379120;19;20336;-76
2023/03/09 11:54:24;;;;;;;12.70;10.38;;;2.40;99.90;;;;;;7269270;19;2019104;-78
2023/03/09 11:56:50;;;;;;;14.07;11.15;;;2.50;99.90;;;;;;7374129;19;21003;-80
2023/03/09 11:59:15;;;;;;;14.53;11.17;;;2.50;99.90;;;;;;7374941;19;20320;-78
2023/03/09 12:01:56;;;;;;;14.57;11.52;;;2.40;99.90;;;;;;7372094;19;20800;-78
2023/03/09 12:04:21;;;;;;;12.45;10.55;;;2.50;99.90;;;;;;7372065;19;20312;-79
2023/03/09 12:06:49;;;;;;;10.38;9.30;;;2.40;99.90;;;;;;7373975;19;20335;-79
2023/03/09 12:09:26;;;;;;;13.07;11.10;;;2.40;99.90;;;;;;7373749;19;21790;-78
2023/03/09 12:12:21;;;;;;;12.77;11.07;;;2.40;99.90;;;;;;7371291;19;20340;-80
2023/03/09 12:14:51;;;;;;;13.07;10.90;;;2.40;99.90;;;;;;7270638;19;2004373;-79
2023/03/09 12:17:20;;;;;;;11.98;9.98;;;2.30;99.90;;;;;;7372795;19;20326;-76
2023/03/09 12:19:50;;;;;;;13.63;11.30;;;2.30;99.90;;;;;;7381243;19;20348;-78
2023/03/09 12:22:38;;;;;;;14.97;12.40;;;2.40;99.90;;;;;;7375351;19;20324;-78
2023/03/09 12:25:07;;;;;;;12.50;10.63;;;2.30;99.90;;;;;;7276466;19;2004536;-79
2023/03/09 12:27:35;;;;;;;14.55;11.45;;;2.30;99.90;;;;;;7378631;19;21214;-78
2023/03/09 12:30:01;;;;;;;11.55;9.73;;;2.30;99.90;;;;;;7381208;19;20348;-78
2023/03/09 12:32:30;;;;;;;14.63;10.10;;;2.30;99.90;;;;;;7375185;19;20332;-79
2023/03/09 12:35:22;;;;;;;14.65;10.85;;;2.40;99.90;;;;;;7379282;19;20343;-81
2023/03/09 12:37:54;;;;;;;11.30;9.95;;;2.40;99.90;;;;;;7378284;19;20429;-78
2023/03/09 12:40:29;;;;;;;16.02;12.10;;;2.40;99.90;;;;;;7380268;19;20349;-78
2023/03/09 12:43:13;;;;;;;14.57;11.77;;;2.40;99.90;;;;;;7376102;19;20356;-80
2023/03/09 12:45:39;;;;;;;15.25;11.95;;;2.40;99.90;;;;;;7279391;19;2004411;-81
2023/03/09 12:48:14;;;;;;;12.13;10.63;;;2.50;99.90;;;;;;7382300;19;20878;-77
2023/03/09 12:50:46;;;;;;;13.18;11.27;;;2.50;99.90;;;;;;7382929;19;20325;-84
2023/03/09 12:53:21;;;;;;;11.57;9.20;;;2.50;99.90;;;;;;7378654;19;20333;-78